Strona główna
METAR-TAF:

METAR-TAF

Lotnisko :

Port lotniczy Saint-Pierre

Saint-Pierre, Saint-Pierre i Miquelon

Szerokość geograficzna: 46-46N, Długość geograficzna: 056-10W, wysokość: 3 m

Aktualna obserwacja pogody

Raport powstał 3 godziny i 33 minut temu, godzina 02:00 UTC
Wiatr 18 kt od południowy zachód
Temperatura 0°C
Wilgotność 100%
Ciśnienie 1018 hPa
Widzialność: 4200 m
Przerywane chmury na wysokości 800 ft
słaby śnieg

METAR: LFVP 170200Z 23018KT 4200 -SN BKN008 00/M00 Q1018 NOSIG

czas: 02:33 (05:33 UTC)

Prognoza

Raport powstał 12 godziny i 33 minut temu, godzina 17:00 UTC
Prognoza ważna od 16 godzina 18 UTC do 17 godzina 03 UTC
Wiatr 25 kt od zachodnio-południowy zachód w porywach dochodzący do 35 kt
Widzialność 10 km lub więcej
Przerywane chmury na wysokości 2600 ft
Stopniowe zmiany
od 16 godzina 19 UTC do 16 godzina 21 UTC
Widzialność: 3000 m
Zachmurzenie całkowite na wysokości 1200 ft
słaby śnieg

TAF: LFVP 161700Z 1618/1703 24025G35KT 9999 BKN026 BECMG 1619/1621 3000 -SN OVC012

Obserwacja i prognoza pogody dla ponad 4000 lotnisk (raport METAR i TAF).

Dostępne stacje oznaczono żółtymi i czerwonymi punktami na mapie.

Najedź kursorem aby zobaczyć nazwę stacji.

Kliknij aby zobaczyć obserwacje i prognozy pogody.

Aby zmienić mapę: kliknij na zielony przycisk z czarnym krzyżykiem, aby powiększyć; na zielony przycisk z myślnikiem, aby pomniejszyć; na zielone strzałki, aby przejść do map sąsiednich.


METAR-TAF: